Time;durP1;ratioP1;P1;durP2;ratioP2;P2;SDS_P1;SDS_P2;PMS_P1;PMS_P2;Temp;Humidity;BMP_temperature;BMP_pressure;BME280_temperature;BME280_humidity;BME280_pressure;Samples;Min_cycle;Max_cycle;Signal;HPM_P1;HPM_P2
2023/05/27 00:01:51;;;;;;;11.60;3.50;;;13.90;82.20;;;;;;10583714;27;20289;-74
2023/05/27 00:06:52;;;;;;;11.77;4.00;;;13.80;82.70;;;;;;10594624;27;20683;-74
2023/05/27 00:11:53;;;;;;;12.50;3.70;;;13.80;83.20;;;;;;10611352;27;20221;-74
2023/05/27 00:16:54;;;;;;;13.83;3.83;;;13.70;83.50;;;;;;10608947;27;20213;-73
2023/05/27 00:21:55;;;;;;;12.57;3.40;;;13.60;83.90;;;;;;10602479;27;20209;-73
2023/05/27 00:26:56;;;;;;;13.87;3.73;;;13.50;84.20;;;;;;10581734;27;20590;-74
2023/05/27 00:31:56;;;;;;;9.87;3.37;;;13.50;84.60;;;;;;10605102;27;20223;-74
2023/05/27 00:36:57;;;;;;;15.43;4.20;;;13.40;84.90;;;;;;10580884;27;20210;-73
2023/05/27 00:41:58;;;;;;;12.57;3.50;;;13.40;85.30;;;;;;10587396;27;20300;-74
2023/05/27 00:46:58;;;;;;;10.20;3.23;;;13.30;85.80;;;;;;10606150;27;20233;-73
2023/05/27 00:52:00;;;;;;;11.40;3.70;;;13.30;86.30;;;;;;10595413;27;20233;-73
2023/05/27 00:57:04;;;;;;;15.77;4.37;;;13.20;86.70;;;;;;10597573;27;20210;-73
2023/05/27 01:02:05;;;;;;;11.63;3.50;;;13.10;86.90;;;;;;10592760;27;20212;-70
2023/05/27 01:07:12;;;;;;;13.63;4.17;;;13.10;87.20;;;;;;10580255;27;20247;-70
2023/05/27 01:12:31;;;;;;;13.60;3.77;;;13.10;87.40;;;;;;10596443;27;20225;-71
2023/05/27 01:17:37;;;;;;;16.97;4.07;;;13.00;87.60;;;;;;10595272;27;20305;-71
2023/05/27 01:22:41;;;;;;;11.33;3.40;;;12.90;88.00;;;;;;10600110;27;20224;-71
2023/05/27 01:27:42;;;;;;;10.00;3.90;;;12.90;88.30;;;;;;10603234;27;20218;-71
2023/05/27 01:32:57;;;;;;;11.63;3.83;;;12.90;88.60;;;;;;10603221;27;20735;-71
2023/05/27 01:38:04;;;;;;;14.90;3.80;;;12.90;88.80;;;;;;10603577;27;20299;-71
2023/05/27 01:43:06;;;;;;;9.30;3.07;;;12.80;89.00;;;;;;10603591;27;20209;-70
2023/05/27 01:48:09;;;;;;;14.07;3.90;;;12.70;89.60;;;;;;10594423;27;20225;-70
2023/05/27 01:53:11;;;;;;;16.20;3.57;;;12.70;89.90;;;;;;10602746;27;20239;-69
2023/05/27 01:58:12;;;;;;;12.20;3.23;;;12.60;90.10;;;;;;10595380;27;20206;-71
2023/05/27 02:03:12;;;;;;;12.47;3.70;;;12.60;90.20;;;;;;10603961;27;20224;-71
2023/05/27 02:08:13;;;;;;;12.20;3.63;;;12.50;90.30;;;;;;10584716;27;20701;-72
2023/05/27 02:13:13;;;;;;;10.93;3.70;;;12.50;90.40;;;;;;10586319;27;20317;-72
2023/05/27 02:18:14;;;;;;;12.90;3.83;;;12.40;90.60;;;;;;10600416;27;20629;-71
2023/05/27 02:23:15;;;;;;;11.77;3.50;;;12.30;90.80;;;;;;10593670;27;20222;-71
2023/05/27 02:28:17;;;;;;;14.30;3.50;;;12.30;91.00;;;;;;10599583;27;20321;-70
2023/05/27 02:33:18;;;;;;;12.37;4.27;;;12.20;91.20;;;;;;10575496;27;20213;-72
2023/05/27 02:38:18;;;;;;;10.67;3.27;;;12.20;91.40;;;;;;10598547;27;20205;-71
2023/05/27 02:43:19;;;;;;;10.50;3.70;;;12.10;91.50;;;;;;10593280;27;20220;-70
2023/05/27 02:48:19;;;;;;;12.30;3.80;;;12.00;91.80;;;;;;10598429;27;20217;-71
2023/05/27 02:53:20;;;;;;;11.90;3.33;;;12.00;92.00;;;;;;10599905;27;20227;-70
2023/05/27 02:58:21;;;;;;;9.53;3.60;;;11.90;92.20;;;;;;10597639;27;20237;-71
2023/05/27 03:03:21;;;;;;;17.60;3.87;;;11.90;92.50;;;;;;10594017;27;20255;-70
2023/05/27 03:08:22;;;;;;;14.00;3.50;;;11.80;92.80;;;;;;10602109;27;20220;-71
2023/05/27 03:13:22;;;;;;;13.90;3.47;;;11.70;93.00;;;;;;10592948;27;20229;-71
2023/05/27 03:18:23;;;;;;;10.87;3.80;;;11.70;93.20;;;;;;10580220;27;20248;-71
2023/05/27 03:23:23;;;;;;;12.67;3.27;;;11.60;93.40;;;;;;10600068;27;20308;-71
2023/05/27 03:28:24;;;;;;;13.20;3.97;;;11.60;93.70;;;;;;10596204;27;20224;-71
2023/05/27 03:33:25;;;;;;;13.03;3.80;;;11.50;94.00;;;;;;10589834;27;20230;-72
2023/05/27 03:38:26;;;;;;;10.23;3.53;;;11.50;94.20;;;;;;10574567;28;20217;-70
2023/05/27 03:43:26;;;;;;;12.07;3.80;;;11.40;94.50;;;;;;10578636;28;20214;-71
2023/05/27 03:48:27;;;;;;;13.50;3.60;;;11.40;94.50;;;;;;10593623;28;20221;-70
2023/05/27 03:53:27;;;;;;;12.93;4.03;;;11.40;94.70;;;;;;10577090;28;20225;-71
2023/05/27 03:58:28;;;;;;;13.80;3.60;;;11.50;94.60;;;;;;10573041;28;20240;-71
2023/05/27 04:03:29;;;;;;;12.00;3.70;;;11.40;94.80;;;;;;10595669;28;20217;-71
2023/05/27 04:08:29;;;;;;;13.20;4.37;;;11.40;94.80;;;;;;10594873;28;20206;-71
2023/05/27 04:13:30;;;;;;;14.70;4.10;;;11.50;94.80;;;;;;10598470;28;20273;-71
2023/05/27 04:18:31;;;;;;;11.97;4.13;;;11.50;94.80;;;;;;10597286;28;20292;-71
2023/05/27 04:23:31;;;;;;;14.10;4.67;;;11.70;94.80;;;;;;10577171;28;20249;-71
2023/05/27 04:28:34;;;;;;;10.20;3.70;;;11.70;94.90;;;;;;10592798;28;20221;-71
2023/05/27 04:33:35;;;;;;;10.67;3.60;;;11.70;94.80;;;;;;10594003;28;20218;-72
2023/05/27 04:38:35;;;;;;;13.63;3.50;;;11.80;94.90;;;;;;10598710;28;20210;-70
2023/05/27 04:43:36;;;;;;;10.90;4.07;;;12.10;94.50;;;;;;10602760;27;20213;-70
2023/05/27 04:48:37;;;;;;;12.57;4.03;;;12.50;93.40;;;;;;10607585;27;20763;-71
2023/05/27 04:53:38;;;;;;;14.20;4.10;;;12.30;93.70;;;;;;10583225;27;20222;-70
2023/05/27 04:58:39;;;;;;;16.53;4.23;;;12.50;93.70;;;;;;10600984;27;20201;-70
2023/05/27 05:03:50;;;;;;;16.67;3.97;;;13.60;91.30;;;;;;10600982;27;20225;-69
2023/05/27 05:08:51;;;;;;;11.50;3.70;;;14.10;90.20;;;;;;10575474;27;20279;-71
2023/05/27 05:13:52;;;;;;;11.00;3.60;;;14.10;89.50;;;;;;10600426;27;20695;-71
2023/05/27 05:18:53;;;;;;;9.63;3.33;;;13.60;90.60;;;;;;10607015;27;20213;-70
2023/05/27 05:23:54;;;;;;;14.93;3.30;;;13.40;91.40;;;;;;10583779;27;20352;-71
2023/05/27 05:28:55;;;;;;;16.87;4.30;;;13.70;90.80;;;;;;10578279;27;20233;-71
2023/05/27 05:33:55;;;;;;;16.63;4.30;;;15.10;87.60;;;;;;10578794;27;20590;-72
2023/05/27 05:38:56;;;;;;;11.47;3.80;;;16.00;83.20;;;;;;10601776;27;20223;-72
2023/05/27 05:43:56;;;;;;;13.20;3.90;;;16.80;80.00;;;;;;10595446;27;20290;-71
2023/05/27 05:48:57;;;;;;;12.57;4.50;;;17.40;77.60;;;;;;10584018;27;20216;-72
2023/05/27 05:53:58;;;;;;;12.63;4.37;;;17.90;75.20;;;;;;10577750;27;20222;-71
2023/05/27 05:58:58;;;;;;;14.13;4.93;;;18.00;73.00;;;;;;10605315;27;20209;-70
2023/05/27 06:04:03;;;;;;;11.47;4.03;;;18.30;72.10;;;;;;10602083;27;20294;-70
2023/05/27 06:09:05;;;;;;;11.90;3.90;;;19.10;69.70;;;;;;10583837;27;20213;-71
2023/05/27 06:14:06;;;;;;;9.40;3.43;;;19.60;67.30;;;;;;10598265;27;20584;-72
2023/05/27 06:19:07;;;;;;;11.67;4.07;;;19.50;66.90;;;;;;10576760;27;20217;-70
2023/05/27 06:24:08;;;;;;;9.50;3.73;;;19.40;66.30;;;;;;10582627;27;20245;-71
2023/05/27 06:29:08;;;;;;;12.40;3.67;;;19.70;65.80;;;;;;10594414;27;20263;-71
2023/05/27 06:34:09;;;;;;;17.43;4.53;;;19.50;65.50;;;;;;10601044;27;20232;-72
2023/05/27 06:39:10;;;;;;;15.57;4.30;;;20.20;64.80;;;;;;10592110;27;20210;-72
2023/05/27 06:44:11;;;;;;;12.73;4.10;;;20.20;64.50;;;;;;10583482;27;20309;-71
2023/05/27 06:49:11;;;;;;;14.50;4.70;;;20.80;62.70;;;;;;10595294;27;20634;-71
2023/05/27 06:54:12;;;;;;;9.20;3.50;;;22.00;60.60;;;;;;10583729;27;20266;-72
2023/05/27 06:59:13;;;;;;;13.70;4.27;;;22.20;58.30;;;;;;10607559;27;20214;-72
2023/05/27 07:04:13;;;;;;;14.77;3.70;;;22.50;57.20;;;;;;10582251;27;20303;-71
2023/05/27 07:09:14;;;;;;;13.73;4.03;;;22.10;58.10;;;;;;10601142;27;20300;-71
2023/05/27 07:14:15;;;;;;;10.23;4.40;;;22.50;56.80;;;;;;10598909;27;20281;-72
2023/05/27 07:19:15;;;;;;;10.30;3.83;;;22.40;56.90;;;;;;10598319;27;20227;-74
2023/05/27 07:24:17;;;;;;;9.17;3.50;;;23.10;55.80;;;;;;10580299;27;20253;-72
2023/05/27 07:29:19;;;;;;;11.23;3.60;;;24.10;54.60;;;;;;10599937;27;20580;-71
2023/05/27 07:34:21;;;;;;;9.67;3.57;;;23.90;54.20;;;;;;10593242;27;20221;-72
2023/05/27 07:39:21;;;;;;;10.70;3.97;;;25.00;52.90;;;;;;10597909;28;20261;-73
2023/05/27 07:44:22;;;;;;;9.73;3.53;;;24.80;52.50;;;;;;10574506;28;20229;-72
2023/05/27 07:49:25;;;;;;;9.80;3.90;;;25.10;52.40;;;;;;10597837;28;20679;-73
2023/05/27 07:54:26;;;;;;;7.53;3.13;;;24.90;51.40;;;;;;10575218;28;20225;-73
2023/05/27 07:59:27;;;;;;;9.43;3.47;;;25.40;51.60;;;;;;10600430;28;20273;-73
2023/05/27 08:04:28;;;;;;;11.97;4.00;;;26.00;50.60;;;;;;10592760;28;20316;-72
2023/05/27 08:09:28;;;;;;;12.17;3.80;;;26.00;50.20;;;;;;10604427;28;20590;-72
2023/05/27 08:14:29;;;;;;;9.90;3.83;;;26.70;49.50;;;;;;10582367;28;20687;-72
2023/05/27 08:19:30;;;;;;;11.23;4.20;;;27.70;48.20;;;;;;10591733;27;20256;-73
2023/05/27 08:24:31;;;;;;;10.97;4.50;;;27.00;47.50;;;;;;10583972;27;20225;-72
2023/05/27 08:29:33;;;;;;;11.73;3.93;;;27.10;47.50;;;;;;10585448;27;20279;-73
2023/05/27 08:34:34;;;;;;;9.20;3.80;;;28.10;47.20;;;;;;10607081;27;20228;-73
2023/05/27 08:39:34;;;;;;;10.10;3.97;;;27.90;45.80;;;;;;10596479;27;20239;-72
2023/05/27 08:44:36;;;;;;;11.67;4.40;;;29.90;44.80;;;;;;10584648;27;20723;-71
2023/05/27 08:49:37;;;;;;;9.90;4.20;;;28.40;44.30;;;;;;10607620;27;20213;-73
2023/05/27 08:54:38;;;;;;;10.03;4.33;;;28.60;44.30;;;;;;10594129;27;20775;-72
2023/05/27 08:59:39;;;;;;;11.70;3.93;;;29.00;42.60;;;;;;10613125;27;20217;-73
2023/05/27 09:04:41;;;;;;;8.50;4.07;;;28.90;42.50;;;;;;10600674;27;20237;-73
2023/05/27 09:09:42;;;;;;;10.80;4.07;;;29.00;42.30;;;;;;10601470;27;20225;-73
2023/05/27 09:14:43;;;;;;;11.47;4.37;;;28.80;41.40;;;;;;10580235;27;20232;-71
2023/05/27 09:19:47;;;;;;;12.80;4.40;;;29.00;41.60;;;;;;10581593;27;20316;-74
2023/05/27 09:24:47;;;;;;;12.83;4.63;;;29.50;40.40;;;;;;10602337;27;20226;-74
2023/05/27 09:29:48;;;;;;;9.27;3.93;;;29.60;40.90;;;;;;10602762;27;20339;-72
2023/05/27 09:34:48;;;;;;;12.03;4.47;;;30.70;39.60;;;;;;10597407;27;20225;-72
2023/05/27 09:39:51;;;;;;;9.83;4.17;;;31.10;39.50;;;;;;10600491;27;20205;-71
2023/05/27 09:44:54;;;;;;;9.87;4.30;;;30.30;38.70;;;;;;10577851;27;20229;-71
2023/05/27 09:49:55;;;;;;;9.20;4.07;;;30.90;38.30;;;;;;10606600;27;20262;-73
2023/05/27 09:54:56;;;;;;;11.10;4.30;;;30.80;39.30;;;;;;10593123;27;20270;-72
2023/05/27 09:59:59;;;;;;;7.97;4.03;;;30.40;39.10;;;;;;10594822;27;20225;-71
2023/05/27 10:05:01;;;;;;;12.10;4.67;;;32.00;38.00;;;;;;10576554;27;20218;-71
2023/05/27 10:10:01;;;;;;;11.50;4.07;;;31.80;36.90;;;;;;10601009;27;20236;-72
2023/05/27 10:15:02;;;;;;;9.00;4.30;;;30.00;38.70;;;;;;10593229;27;20228;-72
2023/05/27 10:20:03;;;;;;;10.03;3.80;;;30.70;38.30;;;;;;10601034;27;20266;-71
2023/05/27 10:25:12;;;;;;;9.67;4.10;;;31.30;37.90;;;;;;10598664;27;20374;-71
2023/05/27 10:30:14;;;;;;;8.70;3.80;;;31.40;37.40;;;;;;10582285;27;20228;-72
2023/05/27 10:35:18;;;;;;;9.63;4.20;;;31.30;37.50;;;;;;10593515;27;20264;-73
2023/05/27 10:40:28;;;;;;;8.63;3.90;;;31.30;38.10;;;;;;10573977;27;20186;-72
2023/05/27 10:45:33;;;;;;;9.47;3.80;;;32.90;37.00;;;;;;10600561;27;20241;-72
2023/05/27 10:50:36;;;;;;;11.80;3.60;;;32.80;35.40;;;;;;10593247;27;20300;-72
2023/05/27 10:55:37;;;;;;;9.77;4.17;;;32.60;34.80;;;;;;10588104;27;20284;-72
2023/05/27 11:00:40;;;;;;;9.17;3.77;;;32.20;36.10;;;;;;10574119;27;20258;-72
2023/05/27 11:05:41;;;;;;;13.57;4.00;;;31.10;37.40;;;;;;10581415;27;20213;-72
2023/05/27 11:10:42;;;;;;;9.70;4.10;;;31.20;37.40;;;;;;10596716;27;20206;-71
2023/05/27 11:15:44;;;;;;;9.67;4.57;;;30.90;37.20;;;;;;10597643;27;20959;-71
2023/05/27 11:20:46;;;;;;;10.67;4.10;;;30.80;37.50;;;;;;10594840;27;20224;-71
2023/05/27 11:25:47;;;;;;;9.47;4.23;;;30.70;37.40;;;;;;10582474;27;20219;-72
2023/05/27 11:30:47;;;;;;;11.23;4.03;;;30.40;37.60;;;;;;10572999;27;20268;-72
2023/05/27 11:35:48;;;;;;;10.00;4.30;;;30.40;37.20;;;;;;10581108;27;20313;-71
2023/05/27 11:40:49;;;;;;;11.90;4.20;;;29.50;39.40;;;;;;10580897;28;20812;-70
2023/05/27 11:45:49;;;;;;;11.77;3.93;;;27.30;42.10;;;;;;10592266;28;20220;-71
2023/05/27 11:50:50;;;;;;;12.20;4.20;;;26.30;44.00;;;;;;10601559;27;20567;-71
2023/05/27 11:55:50;;;;;;;8.93;3.67;;;25.60;44.80;;;;;;10606908;27;20248;-71
2023/05/27 12:00:52;;;;;;;8.77;3.57;;;25.10;45.80;;;;;;10583806;27;20585;-70
2023/05/27 12:05:52;;;;;;;10.80;4.23;;;24.90;46.80;;;;;;10610175;27;20219;-72
2023/05/27 12:10:56;;;;;;;10.20;4.30;;;24.80;46.10;;;;;;10586702;27;20213;-71
2023/05/27 12:15:56;;;;;;;10.17;4.17;;;24.50;46.70;;;;;;10597667;27;20633;-72
2023/05/27 12:20:57;;;;;;;9.83;3.77;;;24.40;47.00;;;;;;10607864;27;20353;-71
2023/05/27 12:25:58;;;;;;;10.47;4.10;;;24.70;47.40;;;;;;10599781;27;20214;-71
2023/05/27 12:30:58;;;;;;;11.90;3.73;;;24.50;46.10;;;;;;10598377;27;20283;-71
2023/05/27 12:36:00;;;;;;;8.80;3.73;;;24.70;44.90;;;;;;10589446;27;20225;-71
2023/05/27 12:41:00;;;;;;;8.83;3.50;;;24.40;44.90;;;;;;10585424;27;20220;-71
2023/05/27 12:46:01;;;;;;;12.30;3.83;;;24.50;44.60;;;;;;10597492;27;20685;-71
2023/05/27 12:51:03;;;;;;;9.17;4.00;;;24.40;44.30;;;;;;10604745;27;20332;-72
2023/05/27 12:56:03;;;;;;;11.37;3.90;;;24.40;44.70;;;;;;10578374;27;20218;-71
2023/05/27 13:01:04;;;;;;;11.10;3.67;;;24.20;46.10;;;;;;10603475;27;20814;-71
2023/05/27 13:06:05;;;;;;;9.40;3.43;;;24.20;45.60;;;;;;10602083;27;20213;-69
2023/05/27 13:11:05;;;;;;;5.87;3.50;;;24.10;46.50;;;;;;10598021;27;20209;-70
2023/05/27 13:16:06;;;;;;;8.63;3.60;;;24.00;45.70;;;;;;10604178;27;20234;-71
2023/05/27 13:21:06;;;;;;;11.10;3.37;;;24.10;44.60;;;;;;10595048;27;20312;-71
2023/05/27 13:26:07;;;;;;;8.07;3.50;;;24.50;44.10;;;;;;10577230;27;20691;-71
2023/05/27 13:31:08;;;;;;;8.10;3.63;;;24.30;43.00;;;;;;10604251;27;20212;-70
2023/05/27 13:36:08;;;;;;;12.00;4.03;;;24.20;45.20;;;;;;10598909;27;20225;-70
2023/05/27 13:41:09;;;;;;;7.40;3.20;;;24.00;45.10;;;;;;10603313;27;20690;-72
2023/05/27 13:46:09;;;;;;;9.43;4.10;;;24.00;44.80;;;;;;10576862;27;20218;-71
2023/05/27 13:51:10;;;;;;;8.83;3.60;;;23.90;44.30;;;;;;10603409;27;20669;-71
2023/05/27 13:56:12;;;;;;;7.23;3.33;;;24.00;44.20;;;;;;10576977;27;20328;-72
2023/05/27 14:01:12;;;;;;;9.30;3.87;;;24.00;43.50;;;;;;10584449;27;20249;-72
2023/05/27 14:06:13;;;;;;;10.53;3.90;;;23.70;43.60;;;;;;10601249;27;20228;-71
2023/05/27 14:11:14;;;;;;;6.77;3.53;;;23.70;43.70;;;;;;10604218;27;20213;-72
2023/05/27 14:16:14;;;;;;;10.53;3.70;;;23.80;44.60;;;;;;10578430;27;20248;-72
2023/05/27 14:21:16;;;;;;;7.13;3.73;;;24.00;44.60;;;;;;10585966;27;20232;-71
2023/05/27 14:26:17;;;;;;;7.40;3.70;;;24.00;44.90;;;;;;10594151;27;20222;-72
2023/05/27 14:31:20;;;;;;;8.07;3.43;;;23.90;43.20;;;;;;10600472;27;20939;-72
2023/05/27 14:36:20;;;;;;;4.83;3.13;;;24.00;44.60;;;;;;10581266;27;20354;-71
2023/05/27 14:41:21;;;;;;;12.57;3.60;;;24.00;42.90;;;;;;10596420;27;20822;-72
2023/05/27 14:46:22;;;;;;;6.73;3.67;;;24.00;43.80;;;;;;10599456;27;20856;-70
2023/05/27 14:51:23;;;;;;;10.70;3.50;;;24.20;43.60;;;;;;10576951;27;20218;-69
2023/05/27 14:56:23;;;;;;;8.00;3.80;;;24.10;43.40;;;;;;10580301;27;20217;-72
2023/05/27 15:01:24;;;;;;;8.33;3.53;;;24.00;43.70;;;;;;10603827;27;20225;-74
2023/05/27 15:06:25;;;;;;;9.37;3.40;;;23.90;43.50;;;;;;10593532;27;20374;-71
2023/05/27 15:11:25;;;;;;;11.43;3.50;;;23.90;44.00;;;;;;10597587;27;20296;-71
2023/05/27 15:16:27;;;;;;;6.70;3.53;;;24.00;44.00;;;;;;10576541;27;20221;-71
2023/05/27 15:21:27;;;;;;;7.17;3.43;;;23.90;43.50;;;;;;10594388;27;20287;-71
2023/05/27 15:26:28;;;;;;;6.90;3.33;;;23.90;44.30;;;;;;10595923;27;20712;-71
2023/05/27 15:31:28;;;;;;;7.73;3.63;;;24.00;44.40;;;;;;10593843;27;20224;-72
2023/05/27 15:36:29;;;;;;;6.43;3.17;;;24.10;44.80;;;;;;10575285;27;20236;-72
2023/05/27 15:41:29;;;;;;;8.30;3.57;;;23.90;43.70;;;;;;10575556;27;20220;-70
2023/05/27 15:46:30;;;;;;;10.10;4.03;;;23.90;43.70;;;;;;10604572;28;20245;-71
2023/05/27 15:51:31;;;;;;;10.43;4.07;;;23.90;43.50;;;;;;10575301;28;20214;-69
2023/05/27 15:56:31;;;;;;;6.93;3.57;;;23.90;44.30;;;;;;10577524;28;20640;-71
2023/05/27 16:01:32;;;;;;;8.60;3.57;;;23.80;44.60;;;;;;10582610;28;20303;-70
2023/05/27 16:06:33;;;;;;;9.53;3.53;;;23.80;44.50;;;;;;10594224;28;20246;-70
2023/05/27 16:11:35;;;;;;;8.17;3.20;;;23.90;45.30;;;;;;10596736;28;20245;-71
2023/05/27 16:16:36;;;;;;;8.57;3.67;;;23.90;45.20;;;;;;10594570;28;20221;-71
2023/05/27 16:21:36;;;;;;;6.37;3.40;;;23.90;45.40;;;;;;10600975;28;20644;-71
2023/05/27 16:26:38;;;;;;;7.07;3.50;;;23.70;44.60;;;;;;10592585;28;20228;-70
2023/05/27 16:31:41;;;;;;;8.07;3.33;;;23.60;44.80;;;;;;10596089;28;20260;-70
2023/05/27 16:36:42;;;;;;;6.77;3.30;;;23.50;44.70;;;;;;10575794;27;20236;-70
2023/05/27 16:41:42;;;;;;;7.47;3.27;;;23.60;44.50;;;;;;10604940;27;20209;-71
2023/05/27 16:46:43;;;;;;;8.13;3.07;;;23.50;43.60;;;;;;10578388;27;20688;-71
2023/05/27 16:51:44;;;;;;;9.00;3.40;;;23.50;44.00;;;;;;10600360;27;20214;-72
2023/05/27 16:56:45;;;;;;;7.50;3.30;;;23.40;44.30;;;;;;10602584;27;20312;-71
2023/05/27 17:01:45;;;;;;;8.57;3.30;;;23.40;44.60;;;;;;10600464;27;20224;-71
2023/05/27 17:06:46;;;;;;;8.93;3.30;;;23.30;44.50;;;;;;10604628;27;20363;-71
2023/05/27 17:11:47;;;;;;;8.13;3.30;;;23.20;44.80;;;;;;10603115;27;20213;-71
2023/05/27 17:16:48;;;;;;;8.23;3.43;;;23.20;45.10;;;;;;10602037;27;20224;-71
2023/05/27 17:21:48;;;;;;;5.40;2.63;;;23.10;45.50;;;;;;10604915;27;20236;-70
2023/05/27 17:26:49;;;;;;;7.23;3.10;;;23.10;45.60;;;;;;10598145;27;20214;-71
2023/05/27 17:31:50;;;;;;;8.03;3.13;;;23.00;46.00;;;;;;10600986;27;20221;-72
2023/05/27 17:36:54;;;;;;;5.87;3.03;;;22.90;46.10;;;;;;10597843;27;20282;-70
2023/05/27 17:41:54;;;;;;;6.63;2.97;;;22.80;46.70;;;;;;10604538;27;20301;-70
2023/05/27 17:46:55;;;;;;;10.03;3.57;;;22.80;45.80;;;;;;10598205;27;20213;-70
2023/05/27 17:51:55;;;;;;;8.33;2.97;;;22.70;45.90;;;;;;10601502;27;20205;-71
2023/05/27 17:56:56;;;;;;;7.03;3.03;;;22.70;46.10;;;;;;10596499;27;20221;-70
2023/05/27 18:01:57;;;;;;;8.87;3.00;;;22.60;46.20;;;;;;10601114;27;20871;-71
2023/05/27 18:06:57;;;;;;;11.07;3.13;;;22.50;46.90;;;;;;10605094;27;20238;-71
2023/05/27 18:11:58;;;;;;;6.00;3.20;;;22.40;47.50;;;;;;10595232;27;20278;-71
2023/05/27 18:17:00;;;;;;;6.70;2.97;;;22.40;47.30;;;;;;10600841;27;20703;-73
2023/05/27 18:22:00;;;;;;;9.10;3.17;;;22.30;47.60;;;;;;10603074;27;20213;-72
2023/05/27 18:27:01;;;;;;;8.77;3.17;;;22.20;47.80;;;;;;10579644;27;20222;-70
2023/05/27 18:32:02;;;;;;;9.00;3.83;;;22.10;48.10;;;;;;10581604;27;20536;-71
2023/05/27 18:37:02;;;;;;;6.90;3.07;;;22.00;48.10;;;;;;10607407;27;20245;-72
2023/05/27 18:42:03;;;;;;;6.13;3.20;;;21.90;48.20;;;;;;10592737;27;20217;-71
2023/05/27 18:47:04;;;;;;;9.33;3.07;;;21.90;49.00;;;;;;10599986;27;20236;-72
2023/05/27 18:52:05;;;;;;;7.80;3.77;;;21.80;49.40;;;;;;10573909;27;20266;-71
2023/05/27 18:57:06;;;;;;;8.57;3.73;;;21.60;50.00;;;;;;10599053;27;20221;-71
2023/05/27 19:02:10;;;;;;;9.87;3.80;;;21.40;50.70;;;;;;10598256;27;20225;-70
2023/05/27 19:07:15;;;;;;;7.17;3.40;;;21.30;51.60;;;;;;10590178;27;20271;-70
2023/05/27 19:12:15;;;;;;;8.30;3.60;;;21.10;51.90;;;;;;10598951;27;20220;-71
2023/05/27 19:17:16;;;;;;;7.97;3.30;;;21.00;52.30;;;;;;10584913;27;20225;-72
2023/05/27 19:22:18;;;;;;;11.70;3.87;;;20.90;52.60;;;;;;10597999;27;20235;-71
2023/05/27 19:27:19;;;;;;;8.00;3.67;;;20.60;54.80;;;;;;10582575;27;20226;-71
2023/05/27 19:32:20;;;;;;;7.77;3.67;;;20.30;56.10;;;;;;10597978;27;20225;-71
2023/05/27 19:37:21;;;;;;;11.73;4.33;;;20.10;58.00;;;;;;10568834;27;20305;-71
2023/05/27 19:42:21;;;;;;;8.63;4.50;;;20.00;61.70;;;;;;10598237;27;20217;-71
2023/05/27 19:47:22;;;;;;;6.97;3.63;;;19.80;63.10;;;;;;10596485;28;20718;-70
2023/05/27 19:52:22;;;;;;;6.87;3.70;;;19.70;62.70;;;;;;10592113;28;20217;-72
2023/05/27 19:57:23;;;;;;;8.30;4.30;;;19.60;63.20;;;;;;10595985;28;20683;-72
2023/05/27 20:02:24;;;;;;;9.77;4.40;;;19.50;64.80;;;;;;10573163;28;20209;-71
2023/05/27 20:07:24;;;;;;;6.63;4.00;;;19.30;65.90;;;;;;10595109;28;20205;-71
2023/05/27 20:12:42;;;;;;;14.53;4.70;;;19.20;67.20;;;;;;10581365;27;20235;-70
2023/05/27 20:17:43;;;;;;;7.97;4.20;;;18.90;68.50;;;;;;10602975;27;20239;-72
2023/05/27 20:22:43;;;;;;;7.33;4.50;;;18.70;69.70;;;;;;10602309;27;20267;-70
2023/05/27 20:27:44;;;;;;;10.80;6.80;;;18.50;72.00;;;;;;10587115;27;20307;-70
2023/05/27 20:32:44;;;;;;;9.07;5.50;;;18.30;73.70;;;;;;10578640;27;20229;-72
2023/05/27 20:37:45;;;;;;;11.03;4.90;;;18.10;75.40;;;;;;10605740;27;20213;-71
2023/05/27 20:42:46;;;;;;;12.30;5.67;;;18.00;76.20;;;;;;10581307;27;20229;-71
2023/05/27 20:47:46;;;;;;;9.00;5.10;;;17.90;77.30;;;;;;10602086;27;20224;-71
2023/05/27 20:52:47;;;;;;;11.87;5.27;;;17.80;78.00;;;;;;10599181;27;20235;-72
2023/05/27 20:57:48;;;;;;;12.97;5.03;;;17.70;79.40;;;;;;10601484;27;20219;-71
2023/05/27 21:02:48;;;;;;;13.40;5.50;;;17.70;79.90;;;;;;10598679;27;20303;-71
2023/05/27 21:07:49;;;;;;;12.40;4.87;;;17.60;79.80;;;;;;10598559;27;20560;-72
2023/05/27 21:12:50;;;;;;;10.80;5.10;;;17.60;80.40;;;;;;10604956;27;20234;-72
2023/05/27 21:17:54;;;;;;;12.10;5.43;;;17.50;80.80;;;;;;10604907;27;20220;-72
2023/05/27 21:22:54;;;;;;;11.57;4.93;;;17.40;81.40;;;;;;10594274;27;20228;-71
2023/05/27 21:27:55;;;;;;;10.40;5.50;;;17.30;82.10;;;;;;10597414;27;20214;-71
2023/05/27 21:32:59;;;;;;;10.90;5.30;;;17.20;82.50;;;;;;10583161;27;20232;-72
2023/05/27 21:38:05;;;;;;;8.33;4.37;;;17.10;83.10;;;;;;10605577;27;20213;-72
2023/05/27 21:43:09;;;;;;;9.67;5.03;;;17.00;83.60;;;;;;10593049;27;20223;-70
2023/05/27 21:48:09;;;;;;;7.70;4.33;;;16.90;84.10;;;;;;10594446;27;20301;-71
2023/05/27 21:53:10;;;;;;;9.83;4.60;;;16.80;84.30;;;;;;10582606;27;20709;-71
2023/05/27 21:58:11;;;;;;;9.93;4.93;;;16.70;84.90;;;;;;10591765;27;20220;-72
2023/05/27 22:03:11;;;;;;;9.70;4.40;;;16.70;85.20;;;;;;10598700;27;20277;-71
2023/05/27 22:08:15;;;;;;;9.57;4.60;;;16.70;85.80;;;;;;10601174;27;20213;-71
2023/05/27 22:13:16;;;;;;;10.73;5.30;;;16.60;86.30;;;;;;10593999;27;20221;-71
2023/05/27 22:18:16;;;;;;;12.33;5.27;;;16.50;86.80;;;;;;10573166;27;20757;-71
2023/05/27 22:23:18;;;;;;;9.77;4.57;;;16.40;86.70;;;;;;10583680;27;20228;-71
2023/05/27 22:28:18;;;;;;;10.30;4.60;;;16.30;86.70;;;;;;10597608;27;20212;-71
2023/05/27 22:33:19;;;;;;;7.93;4.30;;;16.20;87.10;;;;;;10593770;27;20217;-72
2023/05/27 22:38:19;;;;;;;9.80;4.87;;;16.10;87.70;;;;;;10592037;27;20273;-72
2023/05/27 22:43:20;;;;;;;12.97;5.13;;;16.00;88.20;;;;;;10597882;27;20210;-71
2023/05/27 22:48:20;;;;;;;9.30;4.77;;;16.00;88.70;;;;;;10582237;27;20263;-71
2023/05/27 22:53:21;;;;;;;11.57;5.27;;;16.00;89.10;;;;;;10588416;27;20224;-71
2023/05/27 22:58:24;;;;;;;10.67;5.27;;;15.90;90.00;;;;;;10581650;27;20220;-71
2023/05/27 23:03:25;;;;;;;9.60;4.77;;;15.80;90.20;;;;;;10595007;27;20270;-70
2023/05/27 23:08:26;;;;;;;10.17;5.03;;;15.70;90.40;;;;;;10595190;27;20212;-70
2023/05/27 23:13:30;;;;;;;8.80;4.57;;;15.70;89.80;;;;;;10597627;27;20225;-72
2023/05/27 23:18:30;;;;;;;8.73;4.10;;;15.70;88.60;;;;;;10596766;27;20214;-71
2023/05/27 23:23:31;;;;;;;8.43;4.10;;;15.80;87.40;;;;;;10594030;27;20228;-71
2023/05/27 23:28:33;;;;;;;10.47;5.13;;;15.80;86.40;;;;;;10596899;27;20645;-71
2023/05/27 23:33:33;;;;;;;8.43;4.63;;;15.80;85.50;;;;;;10602206;27;20700;-71
2023/05/27 23:38:35;;;;;;;12.40;4.67;;;15.80;84.70;;;;;;10593507;27;20220;-71
2023/05/27 23:43:36;;;;;;;6.53;3.87;;;15.70;84.20;;;;;;10594886;27;20225;-71
2023/05/27 23:48:40;;;;;;;7.43;4.20;;;15.70;84.20;;;;;;10592711;28;20209;-71
2023/05/27 23:53:41;;;;;;;12.20;4.57;;;15.60;84.60;;;;;;10604834;28;20258;-70
2023/05/27 23:58:41;;;;;;;6.20;4.30;;;15.50;84.90;;;;;;10596240;28;20213;-71
